createdAt,value
2017-08-30T00:00:22.828Z,21.40
2017-08-30T00:02:50.951Z,21.40
2017-08-30T00:05:19.048Z,21.40
2017-08-30T00:07:47.136Z,21.30
2017-08-30T00:10:15.414Z,21.40
2017-08-30T00:12:43.541Z,21.40
2017-08-30T00:15:11.777Z,21.40
2017-08-30T00:17:40.236Z,21.30
2017-08-30T00:20:08.626Z,21.30
2017-08-30T00:22:37.072Z,21.30
2017-08-30T00:25:22.676Z,21.20
2017-08-30T00:27:50.781Z,21.20
2017-08-30T00:30:19.759Z,21.20
2017-08-30T00:32:48.579Z,21.20
2017-08-30T00:35:16.933Z,21.20
2017-08-30T00:37:45.074Z,21.20
2017-08-30T00:40:14.078Z,21.10
2017-08-30T00:42:42.450Z,21.10
2017-08-30T00:45:11.643Z,21.10
2017-08-30T00:47:39.737Z,21.10
2017-08-30T00:50:07.812Z,21.20
2017-08-30T00:52:37.087Z,21.20
2017-08-30T00:55:05.178Z,21.20
2017-08-30T00:57:33.500Z,21.10
2017-08-30T01:00:01.600Z,21.10
2017-08-30T01:02:29.745Z,21.10
2017-08-30T01:04:58.089Z,21.20
2017-08-30T01:07:26.314Z,21.10
2017-08-30T01:09:54.436Z,21.20
2017-08-30T01:12:22.608Z,21.20
2017-08-30T01:14:50.784Z,21.20
2017-08-30T01:17:19.972Z,21.20
2017-08-30T01:19:48.346Z,21.20
2017-08-30T01:22:16.682Z,21.20
2017-08-30T01:24:44.994Z,21.30
2017-08-30T01:27:13.797Z,21.30
2017-08-30T01:29:41.884Z,21.20
2017-08-30T01:32:09.960Z,21.20
2017-08-30T01:34:38.307Z,21.20
2017-08-30T01:37:06.836Z,21.10
2017-08-30T01:39:35.838Z,21.10
2017-08-30T01:42:04.173Z,21.10
2017-08-30T01:44:32.603Z,21.10
2017-08-30T01:47:01.874Z,21.10
2017-08-30T01:49:31.056Z,21.00
2017-08-30T01:51:59.178Z,21.00
2017-08-30T01:54:27.923Z,21.00
2017-08-30T01:56:56.255Z,20.90
2017-08-30T01:59:24.345Z,20.90
2017-08-30T02:01:52.741Z,20.90
2017-08-30T02:04:20.848Z,20.90
2017-08-30T02:06:49.231Z,20.80
2017-08-30T02:09:17.482Z,20.80
2017-08-30T02:11:46.670Z,20.80
2017-08-30T02:14:14.767Z,20.70
2017-08-30T02:16:42.852Z,20.70
2017-08-30T02:19:11.071Z,20.70
2017-08-30T02:21:39.277Z,20.70
2017-08-30T02:24:07.752Z,20.70
2017-08-30T02:26:36.090Z,20.70
2017-08-30T02:29:04.350Z,20.60
2017-08-30T02:31:32.443Z,20.60
2017-08-30T02:34:00.615Z,20.20
2017-08-30T02:36:28.735Z,20.60
2017-08-30T02:38:56.858Z,20.60
2017-08-30T02:41:25.871Z,20.60
2017-08-30T02:43:54.203Z,20.50
2017-08-30T02:46:22.438Z,20.60
2017-08-30T02:48:50.563Z,20.50
2017-08-30T02:51:18.887Z,20.50
2017-08-30T02:53:47.216Z,20.40
2017-08-30T02:56:15.454Z,20.40
2017-08-30T02:58:43.795Z,20.30
2017-08-30T03:01:11.903Z,20.30
2017-08-30T03:03:39.991Z,20.40
2017-08-30T03:06:09.023Z,20.40
2017-08-30T03:08:37.363Z,20.40
2017-08-30T03:11:05.443Z,20.40
2017-08-30T03:13:33.691Z,20.30
2017-08-30T03:16:01.799Z,20.30
2017-08-30T03:18:29.927Z,20.30
2017-08-30T03:20:58.024Z,20.30
2017-08-30T03:23:27.163Z,20.20
2017-08-30T03:25:56.106Z,20.20
2017-08-30T03:28:24.405Z,20.20
2017-08-30T03:30:52.499Z,20.10
2017-08-30T03:33:20.824Z,20.10
2017-08-30T03:35:49.166Z,20.10
2017-08-30T03:38:17.244Z,20.00
2017-08-30T03:40:45.575Z,20.00
2017-08-30T03:43:13.897Z,20.00
2017-08-30T03:45:42.004Z,19.90
2017-08-30T03:48:10.932Z,20.00
2017-08-30T03:50:39.208Z,19.90
2017-08-30T03:53:07.775Z,19.90
2017-08-30T03:55:35.916Z,20.00
2017-08-30T03:58:04.176Z,20.00
2017-08-30T04:00:32.427Z,19.90
2017-08-30T04:03:00.582Z,20.00
2017-08-30T04:05:28.939Z,20.00
2017-08-30T04:07:57.071Z,20.00
2017-08-30T04:10:25.212Z,20.10
2017-08-30T04:12:53.312Z,20.10
2017-08-30T04:15:21.650Z,20.10
2017-08-30T04:17:50.118Z,20.00
2017-08-30T04:20:19.211Z,20.00
2017-08-30T04:22:47.385Z,20.00
2017-08-30T04:25:15.499Z,19.90
2017-08-30T04:27:43.854Z,19.90
2017-08-30T04:30:11.955Z,20.00
2017-08-30T04:32:40.839Z,20.00
2017-08-30T04:35:08.987Z,20.00
2017-08-30T04:37:37.990Z,20.10
2017-08-30T04:40:06.413Z,20.10
2017-08-30T04:42:34.719Z,20.10
2017-08-30T04:45:02.834Z,20.10
2017-08-30T04:47:30.936Z,20.10
2017-08-30T04:49:59.280Z,20.20
2017-08-30T04:52:28.151Z,20.20
2017-08-30T04:54:56.478Z,20.20
2017-08-30T04:57:24.811Z,20.30
2017-08-30T04:59:53.863Z,20.30
2017-08-30T05:02:22.183Z,20.40
2017-08-30T05:04:50.283Z,20.50
2017-08-30T05:07:18.387Z,20.60
2017-08-30T05:09:46.564Z,20.60
2017-08-30T05:12:14.720Z,20.70
2017-08-30T05:14:43.047Z,20.70
2017-08-30T05:17:11.371Z,20.80
2017-08-30T05:19:39.477Z,20.80
2017-08-30T05:22:07.804Z,20.80
2017-08-30T05:24:36.713Z,20.80
2017-08-30T05:27:05.688Z,20.80
2017-08-30T05:29:34.039Z,20.90
2017-08-30T05:32:02.940Z,20.90
2017-08-30T05:34:31.907Z,20.90
2017-08-30T05:37:00.243Z,20.90
2017-08-30T05:39:28.364Z,20.90
2017-08-30T05:41:56.459Z,20.90
2017-08-30T05:44:25.633Z,20.90
2017-08-30T05:46:53.968Z,20.90
2017-08-30T05:49:22.899Z,20.90
2017-08-30T05:51:51.261Z,20.90
2017-08-30T05:54:19.363Z,20.90
2017-08-30T05:56:47.633Z,20.90
2017-08-30T05:59:16.063Z,20.80
2017-08-30T06:01:46.842Z,20.90
2017-08-30T06:04:15.206Z,20.90
2017-08-30T06:06:43.316Z,21.00
2017-08-30T06:09:11.528Z,21.10
2017-08-30T06:11:39.609Z,21.10
2017-08-30T06:14:07.964Z,21.20
2017-08-30T06:16:36.292Z,21.20
2017-08-30T06:19:05.404Z,21.30
2017-08-30T06:21:33.743Z,21.40
2017-08-30T06:24:02.108Z,21.50
2017-08-30T06:26:30.270Z,21.50
2017-08-30T06:28:58.612Z,21.60
2017-08-30T06:31:26.939Z,21.60
2017-08-30T06:33:56.092Z,21.60
2017-08-30T06:36:24.268Z,21.70
2017-08-30T06:38:52.625Z,21.70
2017-08-30T06:41:21.548Z,21.80
2017-08-30T06:43:49.939Z,21.80
2017-08-30T06:46:18.017Z,21.80
2017-08-30T06:48:46.365Z,21.80
2017-08-30T06:51:14.675Z,21.80
2017-08-30T06:53:42.863Z,21.90
2017-08-30T06:56:11.110Z,22.00
2017-08-30T06:58:39.439Z,22.00
2017-08-30T07:01:07.875Z,22.00
2017-08-30T07:03:35.958Z,22.00
2017-08-30T07:06:04.299Z,22.00
2017-08-30T07:08:32.408Z,22.00
2017-08-30T07:11:01.615Z,22.00
2017-08-30T07:13:29.696Z,22.00
2017-08-30T07:15:57.826Z,22.10
2017-08-30T07:18:26.888Z,22.10
2017-08-30T07:20:55.027Z,22.10
2017-08-30T07:23:23.252Z,22.00
2017-08-30T07:25:51.603Z,22.00
2017-08-30T07:28:20.009Z,22.00
2017-08-30T07:30:48.357Z,22.10
2017-08-30T07:33:16.719Z,22.10
2017-08-30T07:35:45.119Z,22.10
2017-08-30T07:38:14.183Z,22.20
2017-08-30T07:40:45.608Z,22.20
2017-08-30T07:43:13.700Z,22.30
2017-08-30T07:45:42.039Z,22.30
2017-08-30T07:48:10.128Z,22.30
2017-08-30T07:50:38.236Z,22.30
2017-08-30T07:53:06.347Z,22.40
2017-08-30T07:55:34.468Z,22.40
2017-08-30T07:58:02.839Z,22.40
2017-08-30T08:00:33.056Z,22.50
2017-08-30T08:03:01.157Z,22.50
2017-08-30T08:05:29.530Z,22.50
2017-08-30T08:07:57.834Z,22.50
2017-08-30T08:10:26.313Z,22.50
2017-08-30T08:12:54.589Z,22.50
2017-08-30T08:15:22.716Z,22.40
2017-08-30T08:17:52.858Z,22.40
2017-08-30T08:20:21.671Z,22.40
2017-08-30T08:22:50.435Z,22.40
2017-08-30T08:25:18.539Z,22.40
2017-08-30T08:27:46.671Z,22.50
2017-08-30T08:30:15.904Z,22.40
2017-08-30T08:32:44.023Z,22.40
2017-08-30T08:35:12.122Z,22.50
2017-08-30T08:37:40.307Z,22.40
2017-08-30T08:40:08.457Z,22.40
2017-08-30T08:42:37.608Z,22.40
2017-08-30T08:45:05.919Z,22.30
2017-08-30T08:47:34.235Z,22.20
2017-08-30T08:50:02.499Z,22.10
2017-08-30T08:52:30.748Z,22.00
2017-08-30T08:54:58.823Z,22.00
2017-08-30T08:57:27.909Z,21.90
2017-08-30T08:59:56.030Z,21.90
2017-08-30T09:02:24.393Z,21.90
2017-08-30T09:04:53.056Z,21.80
2017-08-30T09:07:21.408Z,21.90
2017-08-30T09:09:49.716Z,21.80
2017-08-30T09:12:18.103Z,21.80
2017-08-30T09:14:46.447Z,21.80
2017-08-30T09:17:14.799Z,21.80
2017-08-30T09:19:45.078Z,21.90
2017-08-30T09:22:13.198Z,21.90
2017-08-30T09:24:41.283Z,21.90
2017-08-30T09:27:09.391Z,21.90
2017-08-30T09:29:37.887Z,21.90
2017-08-30T09:32:05.980Z,21.90
2017-08-30T09:34:34.848Z,22.10
2017-08-30T09:37:03.788Z,22.10
2017-08-30T09:39:32.340Z,22.00
2017-08-30T09:42:00.470Z,22.00
2017-08-30T09:44:28.863Z,22.00
2017-08-30T09:46:57.145Z,21.90
2017-08-30T09:49:25.244Z,21.90
2017-08-30T09:51:53.320Z,21.90
2017-08-30T09:54:21.654Z,22.00
2017-08-30T09:56:49.746Z,22.10
2017-08-30T09:59:18.115Z,22.30
2017-08-30T10:01:46.644Z,22.30
2017-08-30T10:04:15.014Z,22.40
2017-08-30T10:06:43.340Z,22.50
2017-08-30T10:09:11.677Z,22.60
2017-08-30T10:11:39.764Z,22.60
2017-08-30T10:14:07.903Z,22.60
2017-08-30T10:16:36.003Z,22.70
2017-08-30T10:19:04.137Z,22.70
2017-08-30T10:21:32.240Z,22.80
2017-08-30T10:24:00.610Z,22.80
2017-08-30T10:26:28.697Z,22.80
2017-08-30T10:28:56.968Z,22.90
2017-08-30T10:31:27.208Z,22.90
2017-08-30T10:33:55.470Z,22.90
2017-08-30T10:36:23.623Z,23.00
2017-08-30T10:38:51.955Z,23.10
2017-08-30T10:41:20.290Z,23.20
2017-08-30T10:43:48.604Z,23.20
2017-08-30T10:46:16.741Z,23.30
2017-08-30T10:48:44.838Z,23.30
2017-08-30T10:51:13.152Z,23.40
2017-08-30T10:53:42.403Z,23.40
2017-08-30T10:56:11.419Z,23.50
2017-08-30T10:58:39.588Z,23.60
2017-08-30T11:01:07.688Z,23.70
2017-08-30T11:03:36.122Z,23.80
2017-08-30T11:06:04.456Z,23.80
2017-08-30T11:08:32.835Z,23.90
2017-08-30T11:11:01.240Z,24.00
2017-08-30T11:13:29.596Z,24.00
2017-08-30T11:15:57.687Z,24.00
2017-08-30T11:18:25.807Z,24.10
2017-08-30T11:20:54.164Z,24.10
2017-08-30T11:23:22.492Z,24.10
2017-08-30T11:25:50.567Z,24.20
2017-08-30T11:28:18.952Z,24.20
2017-08-30T11:30:47.291Z,24.20
2017-08-30T11:33:15.416Z,24.30
2017-08-30T11:35:44.671Z,24.30
2017-08-30T11:38:13.001Z,23.90
2017-08-30T11:40:41.124Z,24.50
2017-08-30T11:43:09.531Z,24.50
2017-08-30T11:45:38.355Z,24.60
2017-08-30T11:48:06.635Z,24.70
2017-08-30T11:50:34.766Z,24.70
2017-08-30T11:53:02.859Z,24.80
2017-08-30T11:55:31.860Z,24.90
2017-08-30T11:58:00.173Z,25.00
2017-08-30T12:00:28.633Z,25.00
2017-08-30T12:02:56.964Z,25.10
2017-08-30T12:05:25.308Z,25.10
2017-08-30T12:07:53.700Z,25.20
2017-08-30T12:10:21.785Z,25.10
2017-08-30T12:12:50.134Z,24.90
2017-08-30T12:15:19.173Z,24.80
2017-08-30T12:17:47.284Z,24.80
2017-08-30T12:20:15.582Z,24.80
2017-08-30T12:22:43.756Z,24.90
2017-08-30T12:25:12.156Z,24.90
2017-08-30T12:27:40.400Z,24.90
2017-08-30T12:30:08.528Z,24.70
2017-08-30T12:32:38.747Z,24.70
2017-08-30T12:35:06.961Z,24.60
2017-08-30T12:37:41.814Z,24.60
2017-08-30T12:40:10.044Z,24.60
2017-08-30T12:42:38.118Z,24.60
2017-08-30T12:45:06.217Z,24.50
2017-08-30T12:47:34.583Z,24.50
2017-08-30T12:50:02.896Z,24.40
2017-08-30T12:52:31.224Z,24.40
2017-08-30T12:54:59.414Z,24.40
2017-08-30T12:57:27.741Z,24.40
2017-08-30T12:59:56.080Z,24.30
2017-08-30T13:02:24.429Z,24.30
2017-08-30T13:04:53.546Z,24.40
2017-08-30T13:07:21.632Z,24.40
2017-08-30T13:09:49.968Z,24.40
2017-08-30T13:12:18.064Z,24.40
2017-08-30T13:14:46.395Z,24.40
2017-08-30T13:17:14.720Z,24.40
2017-08-30T13:19:42.876Z,24.40
2017-08-30T13:22:10.989Z,24.40
2017-08-30T13:24:39.097Z,24.50
2017-08-30T13:27:07.875Z,24.50
2017-08-30T13:29:36.232Z,24.50
2017-08-30T13:32:04.310Z,24.50
2017-08-30T13:34:32.535Z,24.60
2017-08-30T13:37:00.731Z,24.60
2017-08-30T13:39:29.055Z,24.70
2017-08-30T13:41:57.395Z,24.70
2017-08-30T13:44:25.543Z,24.70
2017-08-30T13:46:53.913Z,24.70
2017-08-30T13:49:22.254Z,24.60
2017-08-30T13:51:50.363Z,24.60
2017-08-30T13:54:18.486Z,24.50
2017-08-30T13:56:46.805Z,24.50
2017-08-30T13:59:15.811Z,24.50
2017-08-30T14:01:43.920Z,24.40
2017-08-30T14:04:12.304Z,24.40
2017-08-30T14:06:40.619Z,24.40
2017-08-30T14:09:08.924Z,24.50
2017-08-30T14:11:37.115Z,24.50
2017-08-30T14:14:05.219Z,24.50
2017-08-30T14:16:33.416Z,24.40
2017-08-30T14:19:01.508Z,24.40
2017-08-30T14:21:29.615Z,24.40
2017-08-30T14:23:57.735Z,24.30
2017-08-30T14:26:26.058Z,24.30
2017-08-30T14:28:54.157Z,24.30
2017-08-30T14:31:22.356Z,24.30
2017-08-30T14:33:50.451Z,24.30
2017-08-30T14:36:18.551Z,24.30
2017-08-30T14:38:46.641Z,24.30
2017-08-30T14:41:15.453Z,24.20
2017-08-30T14:43:44.464Z,24.20
2017-08-30T14:46:13.471Z,24.20
2017-08-30T14:48:41.731Z,24.20
2017-08-30T14:51:10.924Z,24.10
2017-08-30T14:53:40.002Z,24.10
2017-08-30T14:56:08.124Z,24.10
2017-08-30T14:58:37.484Z,24.10
2017-08-30T15:01:05.652Z,24.10
2017-08-30T15:03:33.936Z,24.10
2017-08-30T15:06:02.878Z,24.10
2017-08-30T15:08:30.992Z,24.10
2017-08-30T15:10:59.108Z,24.20
2017-08-30T15:13:27.439Z,24.20
2017-08-30T15:15:55.778Z,24.20
2017-08-30T15:18:24.143Z,24.20
2017-08-30T15:20:52.270Z,24.10
2017-08-30T15:23:20.447Z,24.20
2017-08-30T15:25:48.835Z,24.20
2017-08-30T15:28:17.935Z,24.20
2017-08-30T15:30:46.039Z,24.10
2017-08-30T15:33:14.439Z,24.10
2017-08-30T15:35:43.329Z,24.10
2017-08-30T15:38:11.471Z,24.10
2017-08-30T15:40:39.824Z,24.10
2017-08-30T15:43:07.910Z,24.10
2017-08-30T15:45:36.086Z,24.10
2017-08-30T15:48:04.205Z,24.10
2017-08-30T15:50:34.264Z,24.10
2017-08-30T15:53:07.234Z,24.10
2017-08-30T15:55:37.297Z,24.00
2017-08-30T15:58:05.416Z,24.00
2017-08-30T16:00:35.447Z,24.00
2017-08-30T16:03:04.472Z,24.00
2017-08-30T16:05:32.599Z,24.00
2017-08-30T16:08:00.722Z,24.00
2017-08-30T16:10:28.896Z,24.00
2017-08-30T16:12:56.990Z,24.00
2017-08-30T16:15:25.098Z,24.00
2017-08-30T16:17:53.192Z,24.00
2017-08-30T16:20:21.309Z,24.00
2017-08-30T16:22:49.411Z,24.10
2017-08-30T16:25:18.444Z,24.00
2017-08-30T16:27:46.569Z,24.00
2017-08-30T16:30:14.650Z,24.00
2017-08-30T16:32:42.801Z,24.00
2017-08-30T16:35:10.881Z,24.00
2017-08-30T16:37:39.940Z,23.90
2017-08-30T16:40:08.092Z,23.80
2017-08-30T16:42:36.191Z,23.70
2017-08-30T16:45:04.305Z,23.70
2017-08-30T16:47:32.392Z,23.50
2017-08-30T16:50:01.328Z,23.20
2017-08-30T16:52:36.780Z,22.70
2017-08-30T16:55:05.923Z,22.40
2017-08-30T16:57:34.095Z,22.50
2017-08-30T17:00:02.242Z,22.40
2017-08-30T17:02:30.455Z,22.40
2017-08-30T17:04:58.597Z,22.40
2017-08-30T17:07:26.712Z,22.40
2017-08-30T17:09:54.892Z,22.40
2017-08-30T17:12:22.985Z,22.40
2017-08-30T17:14:51.216Z,22.40
2017-08-30T17:17:20.284Z,22.50
2017-08-30T17:19:49.334Z,22.50
2017-08-30T17:22:18.404Z,22.60
2017-08-30T17:24:46.567Z,22.60
2017-08-30T17:27:16.645Z,21.40
2017-08-30T17:29:45.472Z,22.40
2017-08-30T17:32:14.703Z,22.30
2017-08-30T17:34:42.899Z,22.30
2017-08-30T17:37:11.406Z,22.30
2017-08-30T17:39:41.456Z,22.30
2017-08-30T17:42:10.615Z,22.20
2017-08-30T17:44:38.929Z,22.20
2017-08-30T17:47:07.324Z,22.20
2017-08-30T17:49:35.633Z,22.20
2017-08-30T17:52:03.996Z,22.30
2017-08-30T17:54:32.183Z,22.30
2017-08-30T17:57:00.304Z,22.30
2017-08-30T17:59:28.454Z,22.20
2017-08-30T18:01:58.595Z,22.30
2017-08-30T18:04:26.755Z,22.30
2017-08-30T18:06:55.677Z,22.20
2017-08-30T18:09:24.060Z,22.20
2017-08-30T18:11:52.195Z,22.10
2017-08-30T18:14:20.408Z,22.20
2017-08-30T18:16:48.918Z,22.10
2017-08-30T18:19:18.034Z,22.10
2017-08-30T18:21:46.467Z,22.10
2017-08-30T18:24:15.420Z,22.00
2017-08-30T18:26:43.881Z,22.00
2017-08-30T18:29:12.383Z,21.90
2017-08-30T18:31:41.711Z,21.80
2017-08-30T18:34:12.837Z,21.90
2017-08-30T18:36:41.047Z,21.80
2017-08-30T18:39:09.147Z,21.80
2017-08-30T18:41:38.021Z,21.80
2017-08-30T18:44:06.131Z,21.70
2017-08-30T18:46:34.935Z,21.70
2017-08-30T18:49:05.845Z,21.80
2017-08-30T18:51:34.041Z,21.70
2017-08-30T18:54:02.140Z,21.70
2017-08-30T18:56:30.249Z,21.70
2017-08-30T18:58:58.348Z,21.80
2017-08-30T19:01:27.540Z,21.80
2017-08-30T19:03:55.724Z,21.90
2017-08-30T19:06:23.828Z,21.80
2017-08-30T19:08:52.833Z,21.80
2017-08-30T19:11:20.941Z,21.80
2017-08-30T19:13:49.056Z,21.60
2017-08-30T19:16:17.160Z,21.20
2017-08-30T19:18:45.263Z,20.80
2017-08-30T19:21:14.265Z,20.60
2017-08-30T19:23:42.361Z,20.50
2017-08-30T19:26:10.476Z,20.40
2017-08-30T19:28:38.560Z,20.30
2017-08-30T19:31:06.683Z,20.30
2017-08-30T19:33:34.778Z,20.20
2017-08-30T19:36:02.873Z,20.10
2017-08-30T19:38:30.975Z,20.20
2017-08-30T19:40:59.102Z,20.20
2017-08-30T19:43:28.136Z,20.10
2017-08-30T19:45:56.219Z,20.10
2017-08-30T19:48:24.319Z,20.10
2017-08-30T19:50:52.415Z,20.10
2017-08-30T19:53:20.497Z,20.10
2017-08-30T19:55:48.595Z,20.00
2017-08-30T19:58:16.676Z,20.00
2017-08-30T20:00:44.781Z,20.00
2017-08-30T20:03:12.886Z,19.90
2017-08-30T20:05:40.983Z,19.90
2017-08-30T20:08:09.085Z,19.90
2017-08-30T20:10:39.720Z,19.90
2017-08-30T20:13:07.838Z,20.00
2017-08-30T20:15:35.928Z,19.90
2017-08-30T20:18:04.030Z,20.00
2017-08-30T20:20:32.131Z,19.90
2017-08-30T20:23:00.221Z,19.90
2017-08-30T20:25:28.311Z,19.90
2017-08-30T20:27:56.433Z,19.70
2017-08-30T20:30:24.550Z,19.70
2017-08-30T20:32:52.659Z,19.30
2017-08-30T20:35:21.655Z,19.70
2017-08-30T20:37:49.750Z,19.70
2017-08-30T20:40:17.911Z,19.70
2017-08-30T20:42:46.002Z,19.60
2017-08-30T20:45:14.123Z,19.70
2017-08-30T20:47:42.221Z,19.60
2017-08-30T20:50:10.323Z,19.60
2017-08-30T20:52:38.515Z,19.60
2017-08-30T20:55:06.740Z,19.60
2017-08-30T20:57:34.847Z,19.60
2017-08-30T21:00:02.963Z,19.60
2017-08-30T21:02:31.055Z,19.60
2017-08-30T21:05:00.095Z,19.40
2017-08-30T21:07:28.206Z,19.40
2017-08-30T21:09:56.518Z,19.40
2017-08-30T21:12:24.595Z,19.30
2017-08-30T21:14:52.766Z,19.20
2017-08-30T21:17:20.856Z,19.20
2017-08-30T21:19:49.983Z,19.10
2017-08-30T21:22:18.068Z,19.20
2017-08-30T21:24:46.144Z,19.10
2017-08-30T21:27:14.288Z,19.10
2017-08-30T21:29:42.460Z,19.20
2017-08-30T21:32:10.567Z,19.10
2017-08-30T21:34:38.684Z,19.10
2017-08-30T21:37:06.805Z,19.10
2017-08-30T21:39:34.944Z,19.00
2017-08-30T21:42:03.747Z,18.90
2017-08-30T21:44:32.266Z,19.00
2017-08-30T21:47:00.339Z,18.90
2017-08-30T21:49:28.437Z,18.90
2017-08-30T21:51:56.516Z,19.00
2017-08-30T21:54:25.495Z,19.10
2017-08-30T21:56:54.518Z,19.10
2017-08-30T21:59:22.622Z,19.10
2017-08-30T22:01:50.706Z,19.10
2017-08-30T22:04:18.777Z,19.00
2017-08-30T22:06:46.874Z,19.00
2017-08-30T22:09:14.951Z,19.00
2017-08-30T22:11:43.054Z,18.90
2017-08-30T22:14:12.090Z,18.80
2017-08-30T22:16:40.364Z,18.80
2017-08-30T22:19:08.703Z,18.90
2017-08-30T22:21:36.795Z,18.90
2017-08-30T22:24:04.870Z,18.90
2017-08-30T22:26:32.979Z,18.90
2017-08-30T22:29:01.353Z,18.80
2017-08-30T22:31:29.427Z,18.80
2017-08-30T22:33:57.626Z,19.00
2017-08-30T22:36:26.411Z,19.00
2017-08-30T22:38:55.432Z,19.00
2017-08-30T22:41:23.800Z,18.90
2017-08-30T22:43:51.883Z,18.90
2017-08-30T22:46:20.256Z,18.70
2017-08-30T22:48:48.611Z,18.80
2017-08-30T22:51:16.991Z,18.70
2017-08-30T22:53:45.318Z,18.80
2017-08-30T22:56:13.571Z,18.70
2017-08-30T22:58:41.741Z,18.70
2017-08-30T23:01:10.507Z,18.70
2017-08-30T23:03:38.863Z,18.80
2017-08-30T23:06:07.806Z,18.70
2017-08-30T23:08:35.923Z,18.80
2017-08-30T23:11:04.036Z,18.80
2017-08-30T23:13:33.292Z,18.90
2017-08-30T23:16:01.550Z,18.80
2017-08-30T23:18:29.888Z,18.80
2017-08-30T23:20:59.243Z,18.80
2017-08-30T23:23:27.337Z,18.80
2017-08-30T23:25:56.387Z,18.80
2017-08-30T23:28:24.678Z,18.80
2017-08-30T23:30:54.076Z,18.80
2017-08-30T23:33:22.176Z,18.70
2017-08-30T23:35:50.503Z,18.70
2017-08-30T23:38:18.848Z,18.90
2017-08-30T23:40:46.930Z,18.80
2017-08-30T23:43:15.071Z,18.70
2017-08-30T23:45:43.176Z,18.80
2017-08-30T23:48:11.519Z,18.90
2017-08-30T23:50:39.903Z,18.90
2017-08-30T23:53:08.108Z,19.00
2017-08-30T23:55:37.560Z,18.80
2017-08-30T23:58:05.677Z,18.80
